Time;durP1;ratioP1;P1;durP2;ratioP2;P2;SDS_P1;SDS_P2;PMS_P1;PMS_P2;Temp;Humidity;BMP_temperature;BMP_pressure;BME280_temperature;BME280_humidity;BME280_pressure;Samples;Min_cycle;Max_cycle;Signal;HPM_P1;HPM_P2
2023/01/17 00:01:04;;;;;;;1.93;1.40;;;8.00;90.30;;;;;;917465;155;27412;-82
2023/01/17 00:03:30;;;;;;;2.20;1.50;;;8.00;90.50;;;;;;918251;154;27443;-82
2023/01/17 00:11:26;;;;;;;1.70;1.50;;;8.00;90.10;;;;;;916359;152;27583;-82
2023/01/17 00:13:53;;;;;;;2.57;1.60;;;8.00;90.00;;;;;;916430;153;27515;-82
2023/01/17 00:16:19;;;;;;;3.57;1.60;;;8.00;89.90;;;;;;935952;149;27993;-82
2023/01/17 00:26:01;;;;;;;1.67;1.50;;;8.00;89.70;;;;;;937009;149;27397;-82
2023/01/17 01:33:36;;;;;;;1.60;1.50;;;7.50;85.60;;;;;;936565;149;27352;-82
2023/01/17 01:36:03;;;;;;;1.93;1.70;;;7.50;85.60;;;;;;935637;149;27439;-82
2023/01/17 01:38:29;;;;;;;2.47;1.67;;;7.50;85.10;;;;;;936069;149;27841;-82
2023/01/17 01:40:56;;;;;;;2.97;1.80;;;7.50;84.50;;;;;;937829;149;27366;-82
2023/01/17 01:43:43;;;;;;;3.57;1.70;;;7.50;84.60;;;;;;936289;149;27469;-82
2023/01/17 01:46:10;;;;;;;2.67;1.70;;;7.50;84.80;;;;;;936754;149;27346;-82
2023/01/17 01:48:36;;;;;;;1.80;1.57;;;7.50;84.20;;;;;;936397;149;27452;-82
2023/01/17 01:51:03;;;;;;;2.00;1.63;;;7.50;83.60;;;;;;937271;149;27335;-81
2023/01/17 01:53:29;;;;;;;3.23;2.00;;;7.40;83.90;;;;;;939304;149;27388;-82
2023/01/17 01:55:56;;;;;;;2.53;1.90;;;7.40;84.00;;;;;;935151;149;27373;-82
2023/01/17 01:58:23;;;;;;;2.40;1.83;;;7.40;83.90;;;;;;937255;149;27427;-82
2023/01/17 02:00:49;;;;;;;2.03;1.50;;;7.40;83.70;;;;;;937760;149;27278;-82
2023/01/17 02:03:16;;;;;;;3.80;1.87;;;7.40;83.60;;;;;;936557;149;27427;-82
2023/01/17 02:05:42;;;;;;;1.87;1.40;;;7.40;83.40;;;;;;936625;149;27351;-82
2023/01/17 02:08:11;;;;;;;2.83;1.47;;;7.40;83.40;;;;;;936445;149;27365;-82
2023/01/17 02:10:38;;;;;;;2.70;1.70;;;7.30;83.00;;;;;;937390;149;27331;-82
2023/01/17 02:13:05;;;;;;;1.50;1.40;;;7.30;83.40;;;;;;945790;146;27426;-82
2023/01/17 02:15:49;;;;;;;2.73;1.97;;;7.30;82.80;;;;;;955556;146;27309;-83
2023/01/17 02:18:34;;;;;;;1.73;1.63;;;7.30;82.60;;;;;;953864;147;27369;-82
2023/01/17 02:21:25;;;;;;;1.77;1.50;;;7.30;82.60;;;;;;955292;146;27683;-82
2023/01/17 02:24:17;;;;;;;2.83;1.60;;;7.30;82.30;;;;;;954075;146;27401;-82
2023/01/17 02:27:11;;;;;;;2.57;1.60;;;7.20;82.30;;;;;;954836;146;27489;-82
2023/01/17 02:29:49;;;;;;;1.47;1.37;;;7.20;82.30;;;;;;955193;146;27439;-82
2023/01/17 02:32:16;;;;;;;2.20;1.87;;;7.20;82.60;;;;;;953282;146;27935;-82
2023/01/17 02:34:54;;;;;;;4.30;1.90;;;7.10;82.50;;;;;;952013;146;27279;-82
2023/01/17 02:37:45;;;;;;;4.33;2.13;;;7.10;82.60;;;;;;923112;154;27923;-82
2023/01/17 02:40:29;;;;;;;2.17;1.50;;;7.00;82.60;;;;;;955622;147;27365;-82
2023/01/17 02:42:56;;;;;;;1.70;1.60;;;7.00;82.30;;;;;;936215;146;27398;-82
2023/01/17 02:45:22;;;;;;;1.70;1.60;;;7.00;82.60;;;;;;954899;147;27470;-82
2023/01/17 02:47:49;;;;;;;1.60;1.50;;;7.00;82.60;;;;;;954857;146;27328;-82
2023/01/17 02:50:15;;;;;;;2.33;1.60;;;6.90;82.60;;;;;;956838;146;27324;-82
2023/01/17 02:52:48;;;;;;;1.83;1.73;;;7.00;82.50;;;;;;953959;146;27506;-83
2023/01/17 02:55:39;;;;;;;1.57;1.37;;;7.00;82.30;;;;;;955232;146;27411;-82
2023/01/17 02:58:21;;;;;;;3.90;1.90;;;7.00;82.50;;;;;;955004;146;27367;-83
2023/01/17 03:01:15;;;;;;;1.83;1.60;;;7.00;82.40;;;;;;954442;147;27337;-83
2023/01/17 03:03:44;;;;;;;1.97;1.30;;;6.90;82.10;;;;;;956517;146;27448;-82
2023/01/17 03:06:16;;;;;;;2.40;1.93;;;6.90;82.20;;;;;;955070;146;27383;-82
2023/01/17 03:08:43;;;;;;;3.23;2.00;;;6.90;82.30;;;;;;956152;146;28399;-81
2023/01/17 03:11:09;;;;;;;3.10;1.40;;;6.90;82.30;;;;;;953984;147;27305;-81
2023/01/17 03:13:36;;;;;;;1.73;1.43;;;6.90;82.10;;;;;;948471;147;27978;-81
2023/01/17 03:16:03;;;;;;;1.63;1.53;;;6.90;82.30;;;;;;937219;149;27455;-81
2023/01/17 03:18:29;;;;;;;1.83;1.40;;;7.00;82.20;;;;;;936658;149;28394;-81
2023/01/17 03:20:56;;;;;;;1.93;1.50;;;6.90;81.80;;;;;;938832;149;27288;-81
2023/01/17 03:23:22;;;;;;;1.67;1.50;;;6.90;81.80;;;;;;937607;149;27451;-81
2023/01/17 03:25:49;;;;;;;2.07;1.60;;;6.90;81.60;;;;;;936633;149;27444;-81
2023/01/17 03:28:15;;;;;;;2.27;1.80;;;6.90;81.50;;;;;;937705;149;27463;-81
2023/01/17 03:30:42;;;;;;;3.43;2.30;;;6.90;81.50;;;;;;938115;149;28096;-81
2023/01/17 03:33:09;;;;;;;3.67;1.83;;;6.90;81.60;;;;;;939261;149;27828;-80
2023/01/17 03:35:35;;;;;;;3.60;2.00;;;6.90;81.60;;;;;;935472;149;27334;-81
2023/01/17 03:38:02;;;;;;;2.43;1.90;;;6.90;81.40;;;;;;937403;149;27464;-81
2023/01/17 03:40:28;;;;;;;1.77;1.67;;;6.90;81.20;;;;;;935378;149;27367;-81
2023/01/17 03:42:55;;;;;;;2.80;1.87;;;6.90;81.20;;;;;;938100;149;27342;-80
2023/01/17 03:45:22;;;;;;;2.40;1.73;;;6.80;81.00;;;;;;938535;149;27346;-81
2023/01/17 03:47:48;;;;;;;2.10;1.90;;;6.80;81.10;;;;;;938398;149;27788;-81
2023/01/17 03:50:15;;;;;;;2.63;1.60;;;6.80;81.00;;;;;;937213;149;27754;-81
2023/01/17 03:52:41;;;;;;;1.50;1.40;;;6.80;81.20;;;;;;937538;149;27409;-80
2023/01/17 03:55:08;;;;;;;1.73;1.63;;;6.80;81.20;;;;;;939111;149;27372;-82
2023/01/17 03:57:35;;;;;;;2.87;1.77;;;6.70;81.30;;;;;;924632;152;27419;-82
2023/01/17 04:00:01;;;;;;;2.57;1.70;;;6.70;81.40;;;;;;924493;152;27365;-82
2023/01/17 04:02:28;;;;;;;1.80;1.53;;;6.70;81.40;;;;;;925103;152;27485;-82
2023/01/17 04:04:54;;;;;;;1.83;1.70;;;6.70;81.40;;;;;;911183;155;27401;-82
2023/01/17 04:07:21;;;;;;;2.83;2.13;;;6.70;81.40;;;;;;902294;155;27414;-82
2023/01/17 04:09:47;;;;;;;3.07;1.70;;;6.70;81.50;;;;;;908989;155;27455;-82
2023/01/17 04:12:14;;;;;;;5.20;2.67;;;6.80;81.50;;;;;;925156;152;27402;-82
2023/01/17 04:14:41;;;;;;;2.47;1.93;;;6.70;81.40;;;;;;924706;152;27507;-82
2023/01/17 04:17:10;;;;;;;1.70;1.60;;;6.70;81.30;;;;;;917649;155;28670;-82
2023/01/17 04:19:37;;;;;;;1.63;1.47;;;6.70;81.20;;;;;;918321;152;27395;-82
2023/01/17 04:22:03;;;;;;;2.13;1.97;;;6.70;81.30;;;;;;915936;153;27930;-82
2023/01/17 04:24:30;;;;;;;2.70;2.00;;;6.70;81.30;;;;;;938812;149;27422;-82
2023/01/17 04:26:56;;;;;;;2.10;1.83;;;6.70;81.20;;;;;;937195;149;27432;-82
2023/01/17 04:29:23;;;;;;;2.93;2.00;;;6.70;81.10;;;;;;938363;149;27290;-82
2023/01/17 04:31:49;;;;;;;2.47;2.03;;;6.70;81.00;;;;;;939209;149;27401;-82
2023/01/17 04:34:16;;;;;;;1.67;1.57;;;6.70;81.20;;;;;;937877;149;27895;-82
2023/01/17 04:36:43;;;;;;;2.77;1.73;;;6.60;81.10;;;;;;937076;149;27476;-82
2023/01/17 04:39:09;;;;;;;2.10;1.80;;;6.60;81.20;;;;;;938092;149;27280;-82
2023/01/17 04:41:36;;;;;;;2.67;2.17;;;6.60;80.90;;;;;;937318;149;27373;-82
2023/01/17 04:44:03;;;;;;;2.63;2.17;;;6.60;81.00;;;;;;939760;149;27343;-82
2023/01/17 04:46:29;;;;;;;2.67;1.87;;;6.60;81.20;;;;;;937774;149;27479;-82
2023/01/17 04:48:56;;;;;;;3.03;2.00;;;6.50;82.00;;;;;;940234;149;27406;-82
2023/01/17 04:51:22;;;;;;;3.30;2.10;;;6.50;81.30;;;;;;938233;149;27420;-82
2023/01/17 04:53:49;;;;;;;2.03;1.87;;;6.50;81.40;;;;;;939083;149;27343;-82
2023/01/17 04:56:15;;;;;;;2.73;2.47;;;6.50;81.50;;;;;;937240;149;27916;-82
2023/01/17 04:58:42;;;;;;;2.17;1.80;;;6.50;81.50;;;;;;937461;149;27382;-82
2023/01/17 05:01:08;;;;;;;4.67;2.10;;;6.50;81.50;;;;;;936470;149;27393;-82
2023/01/17 05:03:35;;;;;;;2.40;2.00;;;6.50;81.60;;;;;;936904;149;27455;-82
2023/01/17 05:06:02;;;;;;;2.37;2.10;;;6.50;81.70;;;;;;935978;149;27342;-82
2023/01/17 05:08:28;;;;;;;2.13;1.90;;;6.50;81.60;;;;;;938148;149;27515;-81
2023/01/17 05:10:55;;;;;;;2.00;1.80;;;6.50;81.70;;;;;;936597;149;27896;-82
2023/01/17 05:13:21;;;;;;;2.37;1.90;;;6.40;81.70;;;;;;935943;149;27418;-82
2023/01/17 05:15:48;;;;;;;1.70;1.60;;;6.40;81.70;;;;;;938675;149;27379;-82
2023/01/17 05:18:15;;;;;;;2.50;1.60;;;6.40;81.50;;;;;;938025;149;27345;-82
2023/01/17 05:20:41;;;;;;;2.83;1.90;;;6.40;81.30;;;;;;937262;149;27483;-82
2023/01/17 05:23:08;;;;;;;2.10;1.93;;;6.40;81.20;;;;;;938157;149;27424;-82
2023/01/17 05:25:34;;;;;;;1.90;1.80;;;6.30;80.90;;;;;;938395;149;27323;-82
2023/01/17 05:28:01;;;;;;;2.10;1.90;;;6.20;80.80;;;;;;936462;149;27331;-82
2023/01/17 05:30:27;;;;;;;3.50;2.00;;;6.20;80.60;;;;;;939385;149;27386;-82
2023/01/17 05:32:54;;;;;;;4.37;2.13;;;6.00;80.40;;;;;;937434;149;27488;-82
2023/01/17 05:35:21;;;;;;;2.33;2.03;;;5.90;80.50;;;;;;936666;149;27363;-82
2023/01/17 05:37:50;;;;;;;4.00;2.00;;;5.80;80.50;;;;;;935538;149;27334;-82
2023/01/17 05:40:19;;;;;;;2.60;2.13;;;5.70;80.70;;;;;;938486;149;27344;-82
2023/01/17 05:42:46;;;;;;;3.90;2.13;;;5.60;80.80;;;;;;939104;149;27482;-82
2023/01/17 05:45:15;;;;;;;2.87;2.20;;;5.50;81.00;;;;;;937609;149;27479;-82
2023/01/17 05:47:39;;;;;;;2.60;2.00;;;5.40;81.20;;;;;;937118;149;27372;-82
2023/01/17 05:50:06;;;;;;;4.60;2.40;;;5.30;81.40;;;;;;938625;149;27368;-82
2023/01/17 05:52:32;;;;;;;3.03;2.10;;;5.20;81.50;;;;;;937043;149;27665;-82
2023/01/17 05:54:59;;;;;;;2.00;1.80;;;5.10;81.80;;;;;;937041;149;27378;-82
2023/01/17 05:57:26;;;;;;;3.53;1.90;;;5.00;82.00;;;;;;937120;149;27304;-82
2023/01/17 05:59:52;;;;;;;1.77;1.67;;;4.90;83.20;;;;;;938349;149;27431;-82
2023/01/17 06:02:19;;;;;;;3.33;2.40;;;4.80;82.50;;;;;;938562;149;27371;-82
2023/01/17 06:04:45;;;;;;;3.07;1.93;;;4.80;82.80;;;;;;935145;149;27421;-81
2023/01/17 06:07:12;;;;;;;2.43;1.90;;;4.70;83.00;;;;;;937267;149;27358;-82
2023/01/17 06:09:38;;;;;;;2.70;2.10;;;4.60;83.40;;;;;;938912;149;27356;-82
2023/01/17 06:12:05;;;;;;;2.93;2.13;;;4.60;83.90;;;;;;937835;149;27337;-82
2023/01/17 06:14:32;;;;;;;1.83;1.73;;;4.60;84.30;;;;;;934906;149;27535;-82
2023/01/17 06:16:58;;;;;;;3.30;2.30;;;4.60;84.80;;;;;;936813;149;27386;-82
2023/01/17 06:19:25;;;;;;;2.73;1.97;;;4.60;85.20;;;;;;939415;149;27335;-82
2023/01/17 06:21:51;;;;;;;2.30;1.90;;;4.70;85.70;;;;;;938105;149;27318;-83
2023/01/17 06:24:18;;;;;;;2.60;2.40;;;4.70;86.00;;;;;;937661;149;27346;-82
2023/01/17 06:26:45;;;;;;;3.43;2.03;;;4.80;86.40;;;;;;937259;149;28020;-82
2023/01/17 06:29:11;;;;;;;3.27;2.60;;;4.80;86.60;;;;;;940148;149;27294;-82
2023/01/17 06:31:38;;;;;;;2.83;2.40;;;4.90;86.70;;;;;;937183;149;27309;-82
2023/01/17 06:34:04;;;;;;;2.53;2.30;;;5.00;86.80;;;;;;937344;149;27340;-81
2023/01/17 06:36:34;;;;;;;3.13;2.33;;;5.00;86.60;;;;;;937524;149;27371;-82
2023/01/17 06:39:00;;;;;;;3.10;2.50;;;5.10;86.40;;;;;;936699;149;27313;-82
2023/01/17 06:41:27;;;;;;;3.97;2.37;;;5.10;86.20;;;;;;937558;149;27742;-82
2023/01/17 06:43:53;;;;;;;2.50;2.30;;;5.10;86.00;;;;;;936344;149;27963;-82
2023/01/17 06:46:20;;;;;;;2.63;2.37;;;5.00;86.00;;;;;;937419;149;27472;-83
2023/01/17 06:48:47;;;;;;;2.77;2.57;;;5.10;86.00;;;;;;938460;149;27405;-83
2023/01/17 06:51:13;;;;;;;3.03;2.53;;;5.10;86.10;;;;;;937449;149;27506;-83
2023/01/17 06:53:40;;;;;;;3.17;2.20;;;5.00;86.10;;;;;;935631;149;27343;-82
2023/01/17 06:56:06;;;;;;;3.90;2.73;;;5.00;86.20;;;;;;936442;149;27313;-83
2023/01/17 06:58:33;;;;;;;3.17;2.57;;;5.00;86.40;;;;;;937740;149;27378;-82
2023/01/17 07:00:59;;;;;;;5.93;4.03;;;5.00;86.50;;;;;;937212;149;27721;-82
2023/01/17 07:03:26;;;;;;;11.10;5.77;;;4.90;86.60;;;;;;935290;149;27335;-82
2023/01/17 07:05:53;;;;;;;7.30;5.33;;;4.90;86.60;;;;;;938453;149;27363;-82
2023/01/17 07:08:19;;;;;;;8.03;5.33;;;4.90;86.70;;;;;;936111;149;27462;-82
2023/01/17 07:10:46;;;;;;;5.57;4.43;;;4.90;87.00;;;;;;935344;149;27362;-83
2023/01/17 07:13:12;;;;;;;4.87;3.77;;;4.90;87.20;;;;;;934900;149;27329;-82
2023/01/17 07:15:39;;;;;;;5.00;3.40;;;4.80;87.40;;;;;;938171;148;27355;-83
2023/01/17 07:18:06;;;;;;;4.33;3.10;;;4.80;87.70;;;;;;949400;148;27433;-82
2023/01/17 07:20:32;;;;;;;4.47;2.70;;;4.80;87.80;;;;;;949355;148;27373;-82
2023/01/17 07:22:59;;;;;;;3.43;2.60;;;4.80;87.80;;;;;;947084;148;28891;-82
2023/01/17 07:25:26;;;;;;;3.37;2.33;;;4.80;87.80;;;;;;948721;148;27337;-82
2023/01/17 07:27:56;;;;;;;3.57;2.70;;;4.80;87.90;;;;;;947311;148;27430;-82
2023/01/17 07:30:21;;;;;;;3.23;2.93;;;4.80;88.00;;;;;;948700;148;27472;-82
2023/01/17 07:32:54;;;;;;;2.67;2.47;;;4.80;88.10;;;;;;946098;148;27421;-82
2023/01/17 07:35:20;;;;;;;3.10;2.80;;;4.80;88.30;;;;;;949667;148;27336;-82
2023/01/17 07:37:50;;;;;;;2.97;2.67;;;4.80;88.70;;;;;;949850;148;27362;-82
2023/01/17 07:40:16;;;;;;;3.70;2.77;;;4.90;89.90;;;;;;948230;148;27382;-82
2023/01/17 07:42:46;;;;;;;4.90;3.90;;;5.00;90.60;;;;;;949781;148;27395;-82
2023/01/17 07:45:12;;;;;;;3.93;3.60;;;5.20;91.50;;;;;;948714;148;27442;-82
2023/01/17 07:47:39;;;;;;;7.60;4.83;;;5.50;92.20;;;;;;948660;148;27338;-82
2023/01/17 07:50:05;;;;;;;4.37;3.97;;;5.90;92.70;;;;;;948666;148;27379;-82
2023/01/17 07:52:32;;;;;;;5.13;4.60;;;6.30;92.90;;;;;;950030;148;27377;-82
2023/01/17 07:54:59;;;;;;;5.13;4.23;;;6.70;92.90;;;;;;949202;148;27415;-82
2023/01/17 07:57:25;;;;;;;4.80;3.87;;;7.10;92.70;;;;;;947593;148;27368;-82
2023/01/17 07:59:52;;;;;;;4.83;3.90;;;7.50;92.30;;;;;;946888;148;27357;-82
2023/01/17 08:02:18;;;;;;;4.87;3.43;;;8.00;91.90;;;;;;947953;148;27393;-83
2023/01/17 08:04:45;;;;;;;3.33;3.03;;;8.40;91.40;;;;;;946310;148;27394;-82
2023/01/17 08:07:12;;;;;;;3.60;3.00;;;8.90;90.90;;;;;;948331;148;27341;-83
2023/01/17 08:09:38;;;;;;;3.50;3.20;;;9.20;90.10;;;;;;949399;148;27417;-82
2023/01/17 08:12:05;;;;;;;4.13;2.63;;;9.50;88.70;;;;;;949411;148;27345;-83
2023/01/17 08:14:31;;;;;;;4.20;2.83;;;9.90;87.10;;;;;;948796;148;27380;-83
2023/01/17 08:17:07;;;;;;;8.40;3.30;;;10.20;86.20;;;;;;941070;148;27417;-83
2023/01/17 08:19:33;;;;;;;4.07;3.10;;;10.40;85.80;;;;;;935922;149;27397;-83
2023/01/17 08:22:00;;;;;;;4.23;3.10;;;10.80;85.50;;;;;;937601;149;27341;-83
2023/01/17 08:24:26;;;;;;;6.33;4.20;;;11.10;84.90;;;;;;938232;149;27406;-83
2023/01/17 08:26:56;;;;;;;5.43;3.80;;;11.50;84.10;;;;;;936171;149;27388;-83
2023/01/17 08:29:22;;;;;;;4.50;3.67;;;11.80;83.20;;;;;;938460;149;27904;-83
2023/01/17 08:31:49;;;;;;;4.20;3.80;;;12.10;82.40;;;;;;937242;149;27327;-83
2023/01/17 08:34:16;;;;;;;3.83;3.50;;;12.40;81.60;;;;;;937554;149;27459;-83
2023/01/17 08:36:43;;;;;;;4.23;3.73;;;12.70;81.00;;;;;;939242;149;27369;-83
2023/01/17 08:39:09;;;;;;;5.50;3.63;;;12.80;79.80;;;;;;937340;150;27428;-83
2023/01/17 08:41:35;;;;;;;4.67;3.30;;;12.90;77.60;;;;;;938989;149;27424;-83
2023/01/17 08:44:02;;;;;;;3.23;3.00;;;12.90;75.30;;;;;;937918;149;27347;-83
2023/01/17 08:46:28;;;;;;;4.37;3.10;;;12.70;73.50;;;;;;936308;149;27385;-83
2023/01/17 08:48:57;;;;;;;3.13;2.83;;;12.40;72.50;;;;;;938028;149;27323;-83
2023/01/17 08:51:25;;;;;;;3.10;2.73;;;12.20;72.10;;;;;;936256;149;27362;-83
2023/01/17 08:53:48;;;;;;;4.60;3.23;;;12.00;73.80;;;;;;937544;149;27827;-83
2023/01/17 08:56:15;;;;;;;4.40;3.17;;;11.90;74.20;;;;;;938786;149;27373;-83
2023/01/17 08:58:41;;;;;;;3.73;3.27;;;11.70;74.90;;;;;;936376;149;27474;-83
2023/01/17 09:01:08;;;;;;;4.50;3.20;;;11.60;74.70;;;;;;937174;149;27311;-83
2023/01/17 09:03:35;;;;;;;4.73;2.93;;;11.50;74.10;;;;;;924937;152;27344;-83
2023/01/17 09:06:04;;;;;;;4.43;3.30;;;11.30;73.50;;;;;;923839;152;27426;-83
2023/01/17 09:08:30;;;;;;;4.60;3.50;;;11.10;72.90;;;;;;908584;155;27492;-83
2023/01/17 09:10:57;;;;;;;4.33;3.43;;;10.90;72.80;;;;;;913826;155;27349;-82
2023/01/17 09:13:24;;;;;;;4.40;3.20;;;10.70;73.00;;;;;;912241;152;27457;-83
2023/01/17 09:15:50;;;;;;;5.00;3.30;;;10.40;72.90;;;;;;913302;155;27294;-83
2023/01/17 09:18:17;;;;;;;3.30;3.00;;;10.20;73.10;;;;;;911723;152;27479;-83
2023/01/17 09:20:43;;;;;;;3.97;3.03;;;10.00;73.10;;;;;;912663;155;27349;-82
2023/01/17 09:23:10;;;;;;;3.53;2.70;;;9.70;73.10;;;;;;911678;155;27270;-82
2023/01/17 09:25:38;;;;;;;6.00;3.47;;;9.50;73.20;;;;;;911871;155;28082;-83
2023/01/17 09:28:03;;;;;;;2.67;2.47;;;9.30;73.40;;;;;;911777;155;27676;-83
2023/01/17 09:30:30;;;;;;;4.63;3.00;;;9.10;73.50;;;;;;910962;152;27474;-82
2023/01/17 09:32:56;;;;;;;3.87;2.37;;;8.80;73.70;;;;;;912264;155;27262;-82
2023/01/17 09:35:23;;;;;;;3.27;2.50;;;8.70;73.90;;;;;;914393;155;27318;-83
2023/01/17 09:37:49;;;;;;;2.53;2.33;;;8.50;74.10;;;;;;912437;155;27345;-83
2023/01/17 09:40:19;;;;;;;4.80;3.20;;;8.30;74.30;;;;;;912447;155;27507;-83
2023/01/17 09:42:45;;;;;;;3.30;2.73;;;8.20;74.40;;;;;;913819;155;27417;-82
2023/01/17 09:45:12;;;;;;;3.60;3.00;;;8.10;74.90;;;;;;912439;155;27342;-83
2023/01/17 09:47:41;;;;;;;3.83;3.17;;;7.90;75.20;;;;;;910184;155;27355;-82
2023/01/17 09:50:14;;;;;;;3.13;2.83;;;7.80;75.50;;;;;;912109;155;27515;-83
2023/01/17 09:52:40;;;;;;;5.07;3.23;;;7.70;75.90;;;;;;912782;155;27878;-83
2023/01/17 09:55:07;;;;;;;3.07;2.77;;;7.60;76.20;;;;;;912552;152;27387;-83
2023/01/17 09:57:37;;;;;;;3.43;3.10;;;7.60;76.20;;;;;;910719;154;27409;-82
2023/01/17 10:00:12;;;;;;;3.63;3.07;;;7.50;76.30;;;;;;911701;155;27472;-83
2023/01/17 10:03:15;;;;;;;3.90;3.07;;;7.40;76.50;;;;;;913353;155;27780;-83
2023/01/17 10:05:54;;;;;;;4.57;2.77;;;7.40;76.60;;;;;;912332;155;27390;-83
2023/01/17 10:08:29;;;;;;;2.60;2.40;;;7.30;76.70;;;;;;912744;155;27337;-83
2023/01/17 10:11:27;;;;;;;2.90;2.37;;;7.20;76.80;;;;;;911091;155;27449;-84
2023/01/17 10:14:05;;;;;;;3.47;3.17;;;7.10;76.90;;;;;;912599;155;27447;-83
2023/01/17 10:16:39;;;;;;;3.57;2.83;;;7.10;77.10;;;;;;911991;155;27344;-83
2023/01/17 10:19:19;;;;;;;3.20;2.90;;;7.10;77.30;;;;;;916939;153;28286;-83
2023/01/17 10:22:03;;;;;;;3.60;2.33;;;7.20;77.60;;;;;;949932;148;27328;-83
2023/01/17 10:24:45;;;;;;;2.50;2.30;;;7.20;77.70;;;;;;947911;148;27505;-83
2023/01/17 10:27:18;;;;;;;3.00;2.30;;;7.20;77.70;;;;;;949147;148;27495;-83
2023/01/17 10:29:44;;;;;;;1.80;1.70;;;7.30;77.80;;;;;;946913;148;27456;-83
2023/01/17 10:32:11;;;;;;;3.20;2.57;;;7.30;77.70;;;;;;948971;148;27420;-84
2023/01/17 10:34:43;;;;;;;2.13;1.90;;;7.40;77.60;;;;;;951837;148;27340;-83
2023/01/17 10:37:15;;;;;;;3.13;2.10;;;7.50;77.50;;;;;;947102;148;27379;-83
2023/01/17 10:39:42;;;;;;;2.97;2.00;;;7.50;77.20;;;;;;949818;148;27418;-84
2023/01/17 10:42:14;;;;;;;2.57;2.23;;;7.60;77.10;;;;;;947225;148;27443;-84
2023/01/17 10:44:44;;;;;;;4.80;3.30;;;7.70;77.40;;;;;;946518;148;27344;-84
2023/01/17 10:47:10;;;;;;;3.40;2.90;;;7.80;77.70;;;;;;945949;148;27395;-83
2023/01/17 10:49:37;;;;;;;2.93;2.60;;;7.90;77.70;;;;;;946421;148;27334;-84
2023/01/17 10:52:15;;;;;;;3.27;2.90;;;7.90;77.60;;;;;;948537;148;27323;-83
2023/01/17 10:55:04;;;;;;;5.00;3.33;;;8.00;77.60;;;;;;947341;148;27336;-84
2023/01/17 10:57:30;;;;;;;2.70;2.50;;;8.10;77.50;;;;;;941985;148;27410;-83
2023/01/17 11:00:00;;;;;;;3.03;2.83;;;8.10;77.70;;;;;;949074;148;27386;-82
2023/01/17 11:02:26;;;;;;;3.00;2.70;;;8.20;77.70;;;;;;949486;148;27459;-82
2023/01/17 11:04:53;;;;;;;3.27;2.97;;;8.30;77.60;;;;;;949662;148;27270;-82
2023/01/17 11:07:24;;;;;;;4.33;2.70;;;8.40;77.30;;;;;;952005;148;27394;-82
2023/01/17 11:09:54;;;;;;;3.13;2.83;;;8.40;76.60;;;;;;948173;148;27302;-82
2023/01/17 11:12:40;;;;;;;3.80;2.97;;;8.50;76.50;;;;;;949978;148;27395;-83
2023/01/17 11:15:10;;;;;;;3.97;3.50;;;8.50;76.20;;;;;;946910;150;27333;-81
2023/01/17 11:17:36;;;;;;;2.60;2.40;;;8.50;76.00;;;;;;948220;148;27385;-81
2023/01/17 11:20:08;;;;;;;2.70;2.50;;;8.50;75.70;;;;;;946577;150;27433;-79
2023/01/17 11:22:35;;;;;;;3.90;2.47;;;8.40;75.50;;;;;;944627;148;27413;-81
2023/01/17 11:25:02;;;;;;;3.37;2.47;;;8.40;75.50;;;;;;945939;150;27498;-81
2023/01/17 11:27:28;;;;;;;2.47;2.20;;;8.50;75.70;;;;;;948527;150;27371;-81
2023/01/17 11:30:01;;;;;;;2.50;2.30;;;8.50;75.70;;;;;;945864;150;27328;-81
2023/01/17 11:32:28;;;;;;;2.90;2.20;;;8.60;75.50;;;;;;943681;150;27310;-79
2023/01/17 11:35:09;;;;;;;3.53;2.20;;;8.60;75.30;;;;;;946399;150;27473;-80
2023/01/17 11:37:36;;;;;;;2.53;2.27;;;8.70;75.30;;;;;;946172;150;27265;-82
2023/01/17 11:40:14;;;;;;;2.90;2.20;;;8.80;75.00;;;;;;945645;148;27856;-80
2023/01/17 11:42:41;;;;;;;2.63;1.97;;;8.90;74.70;;;;;;946834;150;27436;-82
2023/01/17 11:45:25;;;;;;;2.40;1.80;;;9.00;74.30;;;;;;945066;150;27388;-82
2023/01/17 11:48:07;;;;;;;2.30;1.67;;;9.00;73.90;;;;;;909101;150;27740;-81
2023/01/17 11:50:36;;;;;;;2.27;1.90;;;9.10;74.10;;;;;;944528;150;27466;-81
2023/01/17 11:53:24;;;;;;;2.30;1.80;;;9.20;73.50;;;;;;945289;150;27395;-79
2023/01/17 11:55:53;;;;;;;1.90;1.70;;;9.20;72.90;;;;;;945773;150;27498;-81
2023/01/17 11:58:20;;;;;;;1.50;1.40;;;9.30;73.10;;;;;;944868;150;27320;-81
2023/01/17 12:00:46;;;;;;;2.10;1.70;;;9.30;72.20;;;;;;943573;150;27307;-81
2023/01/17 12:03:14;;;;;;;3.33;1.97;;;9.30;72.00;;;;;;944287;150;27691;-80
2023/01/17 12:05:42;;;;;;;2.13;2.00;;;9.30;71.70;;;;;;944395;150;27905;-81
2023/01/17 12:08:09;;;;;;;2.20;2.00;;;9.30;71.60;;;;;;914503;150;27376;-80
2023/01/17 12:10:56;;;;;;;2.00;1.87;;;9.30;71.40;;;;;;945602;150;27336;-81
2023/01/17 12:16:31;;;;;;;2.20;2.00;;;9.30;71.40;;;;;;928963;151;27472;-82
2023/01/17 12:19:20;;;;;;;4.30;2.10;;;9.30;71.50;;;;;;939369;149;27468;-81
2023/01/17 12:21:56;;;;;;;2.40;2.17;;;9.20;71.40;;;;;;937431;151;27399;-82
2023/01/17 12:24:33;;;;;;;3.10;2.10;;;9.20;72.10;;;;;;938596;151;27466;-80
2023/01/17 12:27:18;;;;;;;2.03;1.90;;;9.20;71.30;;;;;;937259;151;27346;-81
2023/01/17 12:30:09;;;;;;;3.50;2.37;;;9.10;71.20;;;;;;938140;149;27337;-81
2023/01/17 12:32:35;;;;;;;2.37;2.17;;;9.10;71.00;;;;;;938786;151;27347;-80
2023/01/17 12:35:17;;;;;;;2.30;2.10;;;9.00;70.90;;;;;;936491;151;27370;-79
2023/01/17 12:37:43;;;;;;;2.53;2.30;;;9.00;71.00;;;;;;938112;151;27335;-79
2023/01/17 12:40:16;;;;;;;2.50;2.07;;;9.00;71.20;;;;;;937279;151;27353;-80
2023/01/17 12:42:42;;;;;;;2.90;2.10;;;8.90;71.10;;;;;;938574;151;27333;-80
2023/01/17 12:45:15;;;;;;;3.43;2.17;;;8.90;70.80;;;;;;936360;152;27361;-79
2023/01/17 12:47:41;;;;;;;3.80;2.60;;;8.80;70.80;;;;;;936928;151;27369;-81
2023/01/17 12:50:26;;;;;;;2.50;2.30;;;8.80;70.80;;;;;;937017;151;28982;-81
2023/01/17 12:53:17;;;;;;;2.27;2.10;;;8.80;70.70;;;;;;937943;149;27394;-81
2023/01/17 12:55:49;;;;;;;2.10;1.90;;;8.70;70.60;;;;;;906741;149;27357;-80
2023/01/17 12:58:15;;;;;;;2.43;2.10;;;8.70;70.80;;;;;;937519;151;27355;-78
2023/01/17 13:00:42;;;;;;;2.03;1.83;;;8.70;70.80;;;;;;936615;149;27386;-80
2023/01/17 13:03:11;;;;;;;3.77;2.53;;;8.60;71.30;;;;;;937590;151;27819;-80
2023/01/17 13:05:39;;;;;;;2.70;2.07;;;8.60;70.40;;;;;;936076;151;27423;-80
2023/01/17 13:08:23;;;;;;;2.47;2.00;;;8.60;70.50;;;;;;910440;156;27372;-78
2023/01/17 13:10:54;;;;;;;4.73;2.30;;;8.60;70.60;;;;;;937113;151;27387;-79
2023/01/17 13:13:21;;;;;;;2.67;2.43;;;8.50;70.50;;;;;;936219;149;27465;-79
2023/01/17 13:15:45;;;;;;;3.93;3.20;;;8.50;70.50;;;;;;942666;148;27293;-81
2023/01/17 13:18:15;;;;;;;3.60;2.77;;;8.50;70.50;;;;;;946101;150;27393;-80
2023/01/17 13:21:06;;;;;;;2.20;2.00;;;8.40;70.50;;;;;;945973;149;27457;-78
2023/01/17 13:23:41;;;;;;;3.03;2.30;;;8.40;70.40;;;;;;945283;150;27470;-81
2023/01/17 13:26:14;;;;;;;2.30;2.10;;;8.40;70.80;;;;;;943243;150;27320;-80
2023/01/17 13:28:49;;;;;;;3.27;2.57;;;8.40;70.90;;;;;;942440;150;27326;-81
2023/01/17 13:31:24;;;;;;;3.70;2.20;;;8.40;70.90;;;;;;945233;150;27320;-79
2023/01/17 13:33:51;;;;;;;3.97;2.27;;;8.40;71.00;;;;;;946490;148;27370;-81
2023/01/17 13:36:20;;;;;;;2.60;2.00;;;8.40;71.00;;;;;;945288;150;27437;-81
2023/01/17 13:39:05;;;;;;;2.40;2.20;;;8.40;71.00;;;;;;943570;150;27273;-81
2023/01/17 13:41:34;;;;;;;2.10;1.93;;;8.50;71.00;;;;;;944089;150;27506;-81
2023/01/17 13:47:00;;;;;;;2.37;1.97;;;8.60;71.20;;;;;;945420;150;27296;-81
2023/01/17 13:49:32;;;;;;;3.13;2.43;;;8.70;71.30;;;;;;939670;150;27337;-80
2023/01/17 13:52:20;;;;;;;6.13;3.53;;;8.70;70.70;;;;;;945679;150;27436;-81
2023/01/17 13:54:46;;;;;;;4.83;3.17;;;8.80;70.40;;;;;;944197;150;27331;-81
2023/01/17 13:57:26;;;;;;;4.50;3.77;;;8.80;70.40;;;;;;947319;150;27328;-82
2023/01/17 13:59:52;;;;;;;2.93;2.50;;;8.80;70.20;;;;;;944149;150;27321;-81
2023/01/17 14:02:37;;;;;;;3.10;2.47;;;8.80;70.00;;;;;;945830;150;27418;-81
2023/01/17 14:05:37;;;;;;;3.03;2.23;;;8.80;70.00;;;;;;945160;150;27411;-81
2023/01/17 14:08:12;;;;;;;4.73;2.43;;;8.70;70.10;;;;;;945897;150;27375;-81
2023/01/17 14:10:59;;;;;;;2.80;2.20;;;8.70;70.00;;;;;;946283;150;27295;-81
2023/01/17 14:13:34;;;;;;;3.33;2.10;;;8.60;69.60;;;;;;923928;153;27425;-80
2023/01/17 14:16:01;;;;;;;3.13;2.03;;;8.50;69.40;;;;;;959378;147;27326;-80
2023/01/17 14:18:33;;;;;;;2.33;2.07;;;8.50;69.60;;;;;;959423;147;27331;-81
2023/01/17 14:21:21;;;;;;;5.30;2.70;;;8.40;69.50;;;;;;957667;147;28019;-80
2023/01/17 14:24:02;;;;;;;2.10;1.80;;;8.40;69.60;;;;;;945505;149;27466;-80
2023/01/17 14:26:26;;;;;;;3.07;1.97;;;8.30;69.70;;;;;;938645;149;27404;-82
2023/01/17 14:28:53;;;;;;;2.53;1.90;;;8.30;69.60;;;;;;940683;149;27360;-81
2023/01/17 14:31:20;;;;;;;3.27;2.17;;;8.30;69.60;;;;;;943772;149;27474;-81
2023/01/17 14:33:46;;;;;;;4.33;3.10;;;8.20;69.60;;;;;;943990;149;27458;-81